Terminal Aerodrome Forecast
Issued by NWS

Home | Current Version | Previous Version | Text Only | Print | Product List | Glossary On
Versions: 1 2 3 4 5 6 7 8 9 10 11 12 13 14 15 16 17 18
000
FTUS44 KCRP 301135
TAFALI
TAF
KALI 301135Z 3012/0112 VRB04KT 5SM BR SCT016
      TEMPO 3012/3014 3SM BR BKN008
     FM301400 16012KT P6SM VCSH SCT018 SCT025
      TEMPO 3017/3021 4SM TS BR BKN025CB BKN070
     FM302100 15014KT P6SM VCTS SCT030CB OVC120 PROB30 3021/0101 4SM
      TSRA BR BKN025CB OVC120
     FM010100 14007KT P6SM FEW025 BKN120
     FM010900 VRB05KT 4SM BR SCT015=

USA.gov is the U.S. government's official web portal to all federal, state and local government web resources and services.